createdAt,value
2023-01-18T00:02:55.043Z,14.69
2023-01-18T00:12:58.478Z,14.59
2023-01-18T00:23:00.746Z,14.55
2023-01-18T00:33:02.236Z,14.56
2023-01-18T00:43:22.418Z,14.52
2023-01-18T00:53:23.796Z,14.46
2023-01-18T01:03:25.392Z,14.38
2023-01-18T01:13:45.512Z,14.34
2023-01-18T01:24:05.580Z,14.40
2023-01-18T01:34:07.218Z,14.60
2023-01-18T01:44:17.783Z,14.84
2023-01-18T01:54:25.628Z,15.00
2023-01-18T02:04:27.045Z,15.14
2023-01-18T02:14:28.474Z,15.28
2023-01-18T02:25:07.428Z,15.34
2023-01-18T02:35:16.370Z,15.41
2023-01-18T02:45:42.515Z,15.50
2023-01-18T02:56:04.871Z,15.57
2023-01-18T03:06:06.503Z,15.61
2023-01-18T03:16:14.743Z,15.51
2023-01-18T03:26:18.156Z,15.37
2023-01-18T03:36:31.565Z,15.27
2023-01-18T03:46:33.173Z,15.15
2023-01-18T03:56:38.963Z,15.05
2023-01-18T04:06:40.519Z,14.96
2023-01-18T04:16:41.994Z,14.84
2023-01-18T04:26:43.496Z,14.69
2023-01-18T04:36:45.035Z,14.54
2023-01-18T04:46:47.464Z,14.45
2023-01-18T04:56:49.001Z,14.35
2023-01-18T05:06:50.410Z,14.38
2023-01-18T05:16:51.832Z,14.54
2023-01-18T05:26:53.232Z,14.72
2023-01-18T05:36:54.650Z,14.97
2023-01-18T05:46:56.048Z,15.16
2023-01-18T05:56:58.788Z,15.34
2023-01-18T06:07:00.296Z,15.49
2023-01-18T06:17:01.809Z,15.59
2023-01-18T06:27:04.080Z,15.64
2023-01-18T06:37:05.507Z,15.64
2023-01-18T06:47:06.889Z,15.63
2023-01-18T06:57:08.272Z,15.64
2023-01-18T07:07:09.709Z,15.74
2023-01-18T07:17:11.108Z,15.79
2023-01-18T07:27:12.540Z,15.86
2023-01-18T07:37:13.922Z,15.88
2023-01-18T07:47:15.300Z,15.88
2023-01-18T07:57:16.718Z,15.90
2023-01-18T08:07:18.499Z,15.95
2023-01-18T08:17:20.236Z,15.95
2023-01-18T08:27:22.383Z,15.99
2023-01-18T08:37:23.813Z,16.05
2023-01-18T08:47:25.189Z,16.09
2023-01-18T08:57:27.671Z,16.21
2023-01-18T09:07:29.048Z,16.29
2023-01-18T09:17:30.592Z,16.36
2023-01-18T09:27:32.228Z,16.37
2023-01-18T09:37:33.612Z,16.45
2023-01-18T09:47:40.025Z,16.53
2023-01-18T09:57:50.531Z,16.60
2023-01-18T10:08:13.416Z,16.62
2023-01-18T10:18:15.888Z,16.66
2023-01-18T10:28:39.507Z,16.66
2023-01-18T10:38:41.053Z,16.66
2023-01-18T10:48:50.178Z,16.66
2023-01-18T10:58:51.412Z,16.62
2023-01-18T11:08:52.875Z,16.63
2023-01-18T11:18:58.390Z,16.65
2023-01-18T11:29:04.603Z,16.67
2023-01-18T11:39:18.125Z,16.67
2023-01-18T11:49:43.003Z,16.68
2023-01-18T11:59:45.562Z,16.68
2023-01-18T12:09:55.921Z,16.69
2023-01-18T12:20:00.743Z,16.73
2023-01-18T12:30:13.822Z,16.72
2023-01-18T12:40:46.464Z,16.76
2023-01-18T12:50:49.291Z,16.78
2023-01-18T13:00:56.688Z,16.78
2023-01-18T13:11:05.500Z,16.76
2023-01-18T13:21:16.760Z,16.66
2023-01-18T13:31:20.296Z,16.58
2023-01-18T13:41:26.313Z,16.47
2023-01-18T13:51:49.384Z,16.37
2023-01-18T14:01:50.945Z,16.29
2023-01-18T14:11:56.827Z,16.21
2023-01-18T14:22:13.280Z,16.16
2023-01-18T14:32:21.712Z,16.07
2023-01-18T14:42:23.108Z,15.97
2023-01-18T14:52:27.507Z,15.89
2023-01-18T15:02:36.660Z,15.80
2023-01-18T15:12:38.285Z,15.72
2023-01-18T15:22:40.863Z,15.63
2023-01-18T15:32:42.386Z,15.55
2023-01-18T15:42:59.286Z,15.45
2023-01-18T15:53:12.161Z,15.38
2023-01-18T16:03:25.526Z,15.27
2023-01-18T16:13:35.550Z,15.20
2023-01-18T16:23:36.933Z,15.12
2023-01-18T16:33:38.334Z,15.04
2023-01-18T16:43:39.921Z,14.96
2023-01-18T16:53:41.628Z,14.88
2023-01-18T17:03:43.222Z,14.80
2023-01-18T17:13:44.873Z,14.74
2023-01-18T17:23:46.465Z,14.76
2023-01-18T17:33:47.874Z,14.70
2023-01-18T17:43:49.473Z,14.63
2023-01-18T17:53:50.863Z,14.55
2023-01-18T18:03:52.519Z,14.51
2023-01-18T18:13:54.331Z,14.66
2023-01-18T18:23:55.897Z,14.81
2023-01-18T18:33:57.469Z,15.04
2023-01-18T18:43:58.961Z,15.20
2023-01-18T18:54:00.421Z,15.33
2023-01-18T19:04:01.834Z,15.44
2023-01-18T19:14:03.250Z,15.55
2023-01-18T19:24:05.127Z,15.61
2023-01-18T19:34:06.606Z,15.65
2023-01-18T19:44:08.878Z,15.68
2023-01-18T19:54:12.463Z,15.56
2023-01-18T20:04:14.065Z,15.47
2023-01-18T20:14:15.522Z,15.34
2023-01-18T20:24:16.918Z,15.21
2023-01-18T20:34:18.750Z,15.06
2023-01-18T20:44:20.668Z,14.97
2023-01-18T20:54:22.170Z,14.89
2023-01-18T21:04:23.579Z,14.81
2023-01-18T21:14:24.978Z,14.69
2023-01-18T21:24:26.506Z,14.65
2023-01-18T21:34:27.891Z,14.57
2023-01-18T21:44:48.399Z,14.51
2023-01-18T21:54:49.834Z,14.53
2023-01-18T22:05:00.220Z,14.67
2023-01-18T22:15:02.263Z,14.89
2023-01-18T22:25:04.145Z,15.11
2023-01-18T22:35:05.817Z,15.23
2023-01-18T22:45:07.678Z,15.36
2023-01-18T22:55:09.421Z,15.46
2023-01-18T23:05:11.005Z,15.50
2023-01-18T23:15:30.653Z,15.62
2023-01-18T23:25:34.845Z,15.66
2023-01-18T23:35:36.225Z,15.70
2023-01-18T23:45:56.101Z,15.75
2023-01-18T23:55:57.700Z,15.65
